Tiempo atmosférico en la estación meteorológica de Orozko, Bizkaia (270 m.)



Fecha
DESCASC
Temp. máxima en grados centígrados (hora)
DESCASC
Temp. mínima en grados centígrados (hora)
DESCASC
Temp. media en grados centígrados
DESCASC
Racha de viento máxima en m/sg (hora)
DESCASC
Velocidad máxima media en intervalos de 10 minutos(hora)
DESCASC
Precipitaciones diarias en mm
DESCASC
Precipitaciones de 00:00 a 06:00 en mm
DESCASC
Precipitaciones de 06:00 a 12:00 en mm
DESCASC
Precipitaciones de 12:00 a 18:00 en mm
DESCASC
Precipitaciones de 18:00 a 24:00 en mm
DESCASC
05-12-2019 11.9 (15:30) 7 (07:00) 9.4 4.44 (04:40) 1.67 (23:40) 0 0 0 0 0
04-12-2019 11.6 (14:10) 0.3 (01:30) 6 5.56 (21:30) 1.67 (23:10) 0 0 0 0 0
03-12-2019 8 (15:20) 0.4 (00:00) 4.2 4.17 (01:40) 1.39 (01:50) 2 2 0 0 0
02-12-2019 8.2 (10:00) 5.6 (00:00) 6.9 6.67 (15:10) 1.67 (12:30) 12 5.6 6.2 0 0.2
01-12-2019 13.8 (14:10) 3.8 (00:00) 8.8 7.78 (07:10) 3.61 (07:10) 1.4 0 0 0 1.4
30-11-2019 16.7 (10:20) 4.3 (00:00) 10.5 14.72 (03:50) 7.22 (04:20) 21.2 0 0 21 0.2
29-11-2019 16 (13:50) 6.7 (00:00) 11.3 -- (--) -- (--) 1.8 1.8 0 0 0
28-11-2019 12.9 (04:20) 8.7 (00:00) 10.8 10.56 (02:40) 2.78 (01:20) 5.8 0 0 4.6 1.2
27-11-2019 16.1 (00:00) 9 (00:00) 12.6 12.5 (02:50) 4.72 (04:30) 4.2 0 0 4 0.2
26-11-2019 18.8 (15:30) 10.3 (00:00) 14.5 16.67 (14:10) 7.5 (09:30) 0 0 0 0 0
25-11-2019 17.8 (12:10) 7.8 (00:00) 12.8 10.28 (02:40) 4.44 (02:40) 0 0 0 0 0
24-11-2019 13 (14:40) 6.9 (00:00) 10 13.61 (19:30) 5.56 (20:10) 6.6 4 1.6 0 1
23-11-2019 12.7 (01:00) 7.6 (00:00) 10.1 12.22 (08:30) 5 (05:50) 24 8.4 12 1.8 1.8
22-11-2019 13.3 (13:50) 10.3 (00:00) 11.8 18.89 (13:10) 7.78 (12:00) 5 0 0 1.4 3.6
21-11-2019 14.6 (14:10) 5.8 (00:00) 10.2 11.11 (02:10) 4.44 (02:10) 0 0 0 0 0
20-11-2019 13.5 (12:40) 3.4 (00:00) 8.5 15 (10:10) 5.56 (05:10) 0 0 0 0 0
19-11-2019 13.3 (14:50) 2.3 (00:00) 7.8 6.39 (23:40) 1.67 (14:30) 0.6 0.6 0 0 0
18-11-2019 8.6 (15:10) 5.6 (00:00) 7.1 6.39 (12:40) 1.94 (12:40) 12 6.8 3.4 0.8 1
17-11-2019 11 (13:50) 4.8 (00:00) 7.9 5.83 (13:50) 1.67 (13:50) 12.6 1 2.2 2 7.4
16-11-2019 7.2 (15:50) 0.1 (00:00) 3.6 4.17 (10:50) 1.67 (10:50) 13.6 0.4 6.8 5.6 0.8
15-11-2019 7.1 (12:40) 1.9 (00:00) 4.5 8.33 (08:20) 3.06 (08:10) 22.8 3.4 11 7.8 0.6
14-11-2019 12.3 (15:00) 3 (00:00) 7.7 8.06 (11:40) 3.33 (11:40) 9.8 9.6 0 0 0.2
13-11-2019 11.8 (12:30) 6.7 (00:00) 9.3 7.22 (06:50) 1.94 (06:50) 18 7.6 7 3.2 0.2
12-11-2019 12.5 (14:50) 6.7 (00:00) 9.6 8.61 (21:00) 3.33 (20:50) 8.8 2.4 0.8 0 5.6
11-11-2019 9.8 (13:10) 5 (00:20) 7.4 8.61 (12:40) 2.5 (13:30) 15.4 2 3.4 4.4 5.6
10-11-2019 7.3 (13:30) 4.9 (00:00) 6.1 6.94 (13:50) 2.5 (13:40) 39.6 11.8 15.8 7.8 4.2
09-11-2019 10.6 (15:20) 6.7 (00:00) 8.7 8.89 (14:50) 3.89 (14:50) 23.6 6.4 2 2.2 13
08-11-2019 8.1 (14:30) 4.1 (00:00) 6.1 10.56 (07:00) 4.44 (07:00) 32.6 4.2 6 14.6 7.8

Gráficas

Temp. máximas Temp. mínimas Temp. medias Precipitaciones Rachas de viento máximas Velocidades máximas media en intervalos de 10 minutos

Datos horarios

Fecha y hora oficial Temperatura (ºC) Velocidad del viento (km/h) Dirección del viento Racha (km/h) Dirección de racha Precipitación (mm) Presión (hPa) Tendencia (hPa) Humedad (%)
2019-12-07 23:00:00 7.1 0 Calma 6 Sudoeste 0 -- -- 96
2019-12-07 22:00:00 6.9 3 Sur 6 Sudoeste 0 -- -- 94
2019-12-07 21:00:00 7.6 3 Sudoeste 8 Sur 0 -- -- 92
2019-12-07 20:00:00 8.8 4 Sur 12 Sudoeste 0 -- -- 90
2019-12-07 19:00:00 10 5 Sudeste 12 Sur 0 -- -- 89
2019-12-07 18:00:00 10.1 4 Sur 12 Sur 0 -- -- 88
2019-12-07 17:00:00 11.1 4 Sudoeste 9 Sudoeste 0 -- -- 85
2019-12-07 16:00:00 12.8 5 Oeste 10 Oeste 0 -- -- 77
2019-12-07 15:00:00 15.1 8 Oeste 12 Noroeste 0 -- -- 67
2019-12-07 14:00:00 14.6 5 Sudoeste 9 Sudoeste 0 -- -- 69
2019-12-07 13:00:00 11.6 0 Calma 4 Noroeste 0 -- -- 81
2019-12-07 12:00:00 10.4 0 Calma 6 Norte 0 -- -- 93
2019-12-07 11:00:00 8.4 0 Calma 4 Sudoeste 0 -- -- 100
2019-12-07 10:00:00 5.1 0 Calma 6 Sur 0 -- -- 99
2019-12-07 09:00:00 3.9 0 Calma 5 Sur 0 -- -- 99
2019-12-07 08:00:00 3.8 2 Sudeste 8 Sur 0 -- -- 98
2019-12-07 07:00:00 4.2 0 Calma 5 Sudoeste 0 -- -- 98
2019-12-07 06:00:00 4.6 3 Sur 9 Sudoeste 0 -- -- 97
2019-12-07 05:00:00 4.7 0 Calma 6 Sur 0 -- -- 97
2019-12-07 04:00:00 5 4 Sur 6 Sur 0 -- -- 96
2019-12-07 03:00:00 5.7 4 Sudoeste 7 Sur 0 -- -- 96
2019-12-07 02:00:00 6.6 4 Sudoeste 6 Sudoeste 0 -- -- 96
2019-12-07 01:00:00 7 3 Sur 7 Sudoeste 0 -- -- 96
2019-12-07 00:00:00 6.8 0 Calma 6 Sudoeste 0 -- -- 96
2019-12-06 23:00:00 6.7 2 Sur 11 Sudoeste 0 -- -- 95
2019-12-06 22:00:00 6.6 0 Calma 6 Sur 0 -- -- 94
2019-12-06 21:00:00 6.8 2 Sur 9 Sur 0 -- -- 92
2019-12-06 20:00:00 7.4 0 Calma 6 Sur 0 -- -- 88
2019-12-06 19:00:00 8.7 2 Sur 7 Sudoeste 0 -- -- 85
2019-12-06 18:00:00 10.7 3 Sudeste 9 Sudoeste 0 -- -- 82
2019-12-06 17:00:00 12.3 4 Sur 9 Sur 0 -- -- 77
2019-12-06 16:00:00 14.2 3 Sudoeste 10 Noroeste 0 -- -- 69
2019-12-06 15:00:00 16.3 4 Norte 26 Oeste 0 -- -- 53
2019-12-06 14:00:00 16 3 Norte 15 Nordeste 0 -- -- 57
2019-12-06 13:00:00 13.8 3 Norte 8 Norte 0 -- -- 72
2019-12-06 12:00:00 10.1 2 Norte 16 Norte 0 -- -- 93
2019-12-06 11:00:00 7.2 3 Oeste 8 Sudoeste 0 -- -- 100
2019-12-06 10:00:00 4.2 0 Calma 8 Sudoeste 0 -- -- 100
2019-12-06 09:00:00 2.4 3 Sur 6 Sudoeste 0 -- -- 99
2019-12-06 08:00:00 2.5 3 Sur 8 Sudoeste 0 -- -- 98
2019-12-06 07:00:00 2.6 3 Sudoeste 6 Sur 0 -- -- 98
2019-12-06 06:00:00 3 0 Calma 6 Sudoeste 0 -- -- 97
2019-12-06 05:00:00 3.3 0 Calma 6 Sur 0 -- -- 96
2019-12-06 04:00:00 3.9 2 Sur 7 Sudoeste 0 -- -- 96
2019-12-06 03:00:00 4.8 4 Sudoeste 8 Sur 0 -- -- 96
2019-12-06 02:00:00 6 0 Calma 4 Sur 0 -- -- 95
2019-12-06 01:00:00 6.6 0 Calma 5 Sur 0 -- -- 96
2019-12-06 00:00:00 7 0 Calma 10 Sur 0 -- -- 94
2019-12-05 23:00:00 7.9 2 Sur 6 Sur 0 -- -- 94
2019-12-05 22:00:00 8.5 3 Sur 6 Sudoeste 0 -- -- 93
2019-12-05 21:00:00 8.7 4 Sudoeste 9 Sur 0 -- -- 91
2019-12-05 20:00:00 9.1 2 Sudoeste 6 Sur 0 -- -- 90
2019-12-05 19:00:00 9.7 0 Calma 10 Este 0 -- -- 88
2019-12-05 18:00:00 9.9 3 Sudoeste 10 Este 0 -- -- 88
2019-12-05 17:00:00 11.1 2 Este 10 Este 0 -- -- 84
2019-12-05 16:00:00 11.7 0 Calma 8 Oeste 0 -- -- 82
2019-12-05 15:00:00 11.6 3 Oeste 7 Oeste 0 -- -- 81
2019-12-05 14:00:00 10.9 0 Calma 8 Oeste 0 -- -- 85
2019-12-05 13:00:00 10.1 0 Calma 4 Norte 0 -- -- 84
2019-12-05 12:00:00 9.5 2 Nordeste 8 Norte 0 -- -- 87
2019-12-05 11:00:00 9 3 Norte 5 Norte 0 -- -- 90
2019-12-05 10:00:00 7.5 0 Calma 5 Sudeste 0 -- -- 96
2019-12-05 09:00:00 7.1 4 Sur 7 Sur 0 -- -- 94
2019-12-05 08:00:00 7.1 3 Sudoeste 9 Sur 0 -- -- 92
2019-12-05 07:00:00 7 3 Sur 10 Sur 0 -- -- 93
2019-12-05 06:00:00 7.2 2 Sur 7 Norte 0 -- -- 90
2019-12-05 05:00:00 7.4 6 Este 16 Este 0 -- -- 89
2019-12-05 04:00:00 7.5 3 Sur 15 Sur 0 -- -- 92
2019-12-05 03:00:00 7.7 2 Noroeste 9 Nordeste 0 -- -- 90
2019-12-05 02:00:00 7.4 4 Sudoeste 14 Oeste 0 -- -- 95
2019-12-05 01:00:00 7.1 0 Calma 8 Sudeste 0 -- -- 96
2019-12-05 00:00:00 7.1 2 Sur 13 Sur 0 -- -- 95
2019-12-04 23:00:00 7.2 4 Sudoeste 10 Sudoeste 0 -- -- 95
2019-12-04 22:00:00 7.4 3 Sudoeste 20 Sudeste 0 -- -- 95
2019-12-04 21:00:00 7.4 0 Calma 5 Sur 0 -- -- 94
2019-12-04 20:00:00 7.6 2 Sudeste 7 Sudoeste 0 -- -- 92
2019-12-04 19:00:00 7.7 3 Sudoeste 7 Sudoeste 0 -- -- 91
2019-12-04 18:00:00 8 0 Calma 6 Sudoeste 0 -- -- 88
2019-12-04 17:00:00 8.7 2 Oeste 9 Oeste 0 -- -- 82
2019-12-04 16:00:00 10.2 4 Sudeste 13 Sur 0 -- -- 72
2019-12-04 15:00:00 11.6 4 Sur 10 Sudeste 0 -- -- 67
2019-12-04 14:00:00 11.3 3 Norte 10 Norte 0 -- -- 66
2019-12-04 13:00:00 9.4 5 Norte 12 Norte 0 -- -- 88
2019-12-04 12:00:00 7.5 2 Noroeste 6 Norte 0 -- -- 100
2019-12-04 11:00:00 3.4 0 Calma 4 Sudeste 0 -- -- 100
2019-12-04 10:00:00 1.7 2 Sudeste 6 Sudoeste 0 -- -- 100
2019-12-04 09:00:00 1.2 4 Sur 8 Sudoeste 0 -- -- 100
2019-12-04 08:00:00 0.6 3 Sur 9 Sur 0 -- -- 100
2019-12-04 07:00:00 0.7 2 Sur 9 Sur 0 -- -- 100
2019-12-04 06:00:00 0.7 2 Sur 10 Sur 0 -- -- 99
2019-12-04 05:00:00 0.6 3 Sur 12 Sudoeste 0 -- -- 99
2019-12-04 04:00:00 0.3 0 Calma 8 Sudoeste 0 -- -- 99
2019-12-04 03:00:00 0.4 2 Sur 7 Sudoeste 0 -- -- 99
2019-12-04 02:00:00 0.3 2 Sur 9 Sudoeste 0 -- -- 99
2019-12-04 01:00:00 0.4 3 Sudoeste 8 Sur 0 -- -- 98
2019-12-04 00:00:00 0.4 2 Sur 7 Sudoeste 0 -- -- 98
2019-12-03 23:00:00 0.7 2 Sur 6 Sur 0 -- -- 97
2019-12-03 22:00:00 1.1 0 Calma 7 Sur 0 -- -- 96
2019-12-03 21:00:00 1.6 3 Sur 8 Sur 0 -- -- 95
2019-12-03 20:00:00 2.5 4 Sudoeste 6 Sudoeste 0 -- -- 93
2019-12-03 19:00:00 4 0 Calma 5 Sudeste 0 -- -- 92
2019-12-03 18:00:00 5.8 2 Sudoeste 6 Oeste 0 -- -- 91
2019-12-03 17:00:00 6.6 0 Calma 7 Oeste 0 -- -- 87
2019-12-03 16:00:00 7.3 3 Nordeste 8 Sudeste 0 -- -- 80
2019-12-03 15:00:00 7.8 3 Sur 8 Este 0 -- -- 79
2019-12-03 14:00:00 7 2 Sudeste 8 Este 0 -- -- 86
2019-12-03 13:00:00 6.5 2 Sur 10 Sudeste 0 -- -- 92
2019-12-03 12:00:00 5.9 2 Nordeste 6 Este 0 -- -- 98
2019-12-03 11:00:00 5.4 0 Calma 4 Sur 0 -- -- 98
2019-12-03 10:00:00 5.1 3 Oeste 5 Oeste 0 -- -- 99
2019-12-03 09:00:00 4.9 0 Calma 5 Oeste 0 -- -- 98
2019-12-03 08:00:00 4.9 2 Este 10 Nordeste 0 -- -- 98
2019-12-03 07:00:00 5 2 Oeste 8 Nordeste 0 -- -- 98
2019-12-03 06:00:00 4.9 2 Sur 5 Norte 0.4 -- -- 98
2019-12-03 05:00:00 4.8 0 Calma 11 Este 0.6 -- -- 97
2019-12-03 04:00:00 4.8 2 Norte 12 Norte 0.2 -- -- 96
2019-12-03 03:00:00 5 0 Calma 7 Oeste 0.4 -- -- 95
2019-12-03 02:00:00 5.3 3 Nordeste 15 Nordeste 0.4 -- -- 93
2019-12-03 01:00:00 5.5 2 Sudeste 7 Nordeste 0 -- -- 93
2019-12-03 00:00:00 5.6 0 Calma 10 Nordeste 0.2 -- -- 93
2019-12-02 23:00:00 5.8 0 Calma 7 Norte 0 -- -- 91
2019-12-02 22:00:00 5.8 3 Oeste 17 Nordeste 0 -- -- 90
2019-12-02 21:00:00 5.8 2 Norte 14 Este 0 -- -- 92
2019-12-02 20:00:00 5.9 3 Nordeste 15 Noroeste 0 -- -- 93
2019-12-02 19:00:00 5.8 3 Este 6 Norte 0 -- -- 94
2019-12-02 18:00:00 6.1 0 Calma 11 Sudoeste 0 -- -- 90
2019-12-02 17:00:00 6.4 2 Noroeste 12 Este 0 -- -- 88
2019-12-02 16:00:00 6.8 3 Nordeste 24 Nordeste 0 -- -- 93
2019-12-02 15:00:00 7.3 2 Sudeste 23 Nordeste 0 -- -- 93
2019-12-02 14:00:00 7.7 5 Sudeste 20 Sur 0 -- -- 93
2019-12-02 13:00:00 7.9 6 Este 23 Este 0 -- -- 98
2019-12-02 12:00:00 8 3 Este 16 Norte 1.8 -- -- 98
2019-12-02 11:00:00 8 3 Norte 13 Noroeste 1.8 -- -- 99
2019-12-02 10:00:00 8.2 4 Sudoeste 8 Noroeste 0 -- -- 99
2019-12-02 09:00:00 7.9 4 Oeste 9 Noroeste 0 -- -- 99
2019-12-02 08:00:00 7.9 3 Oeste 16 Sur 0.8 -- -- 99
2019-12-02 07:00:00 7.6 3 Oeste 7 Oeste 1.8 -- -- 99
2019-12-02 06:00:00 7.5 0 Calma 5 Sudoeste 0.2 -- -- 99
2019-12-02 05:00:00 7.5 0 Calma 4 Oeste 0.8 -- -- 99
2019-12-02 04:00:00 7.4 0 Calma 3 Oeste 1 -- -- 99
2019-12-02 03:00:00 7.5 0 Calma 4 Sudoeste 2.8 -- -- 98
2019-12-02 02:00:00 7.5 0 Calma 4 Sudoeste 0.6 -- -- 98
2019-12-02 01:00:00 7.4 0 Calma 3 Noroeste 0.2 -- -- 98
2019-12-02 00:00:00 7.4 0 Calma 5 Sur 0 -- -- 97
2019-12-01 23:00:00 7.6 0 Calma 4 Oeste 0 -- -- 97
2019-12-01 22:00:00 8 2 Oeste 4 Oeste 0.2 -- -- 96
2019-12-01 21:00:00 8.5 0 Calma 11 Norte 0.6 -- -- 95
2019-12-01 20:00:00 8.6 4 Noroeste 9 Nordeste 0.6 -- -- 93
2019-12-01 19:00:00 8.6 0 Calma 6 Sur 0 -- -- 90
2019-12-01 18:00:00 10.1 0 Calma 10 Sudeste 0 -- -- 84
2019-12-01 17:00:00 11.3 4 Este 14 Este 0 -- -- 79
2019-12-01 16:00:00 13.2 4 Sudeste 11 Este 0 -- -- 70
2019-12-01 15:00:00 13.1 3 Norte 10 Este 0 -- -- 68
2019-12-01 14:00:00 13.7 4 Noroeste 13 Noroeste 0 -- -- 64
2019-12-01 13:00:00 12.9 4 Norte 11 Norte 0 -- -- 71
2019-12-01 12:00:00 12.2 3 Norte 8 Noroeste 0 -- -- 69
2019-12-01 11:00:00 9.8 0 Calma 5 Nordeste 0 -- -- 96
2019-12-01 10:00:00 7.5 0 Calma 8 Sudeste 0 -- -- 97
2019-12-01 09:00:00 6.6 3 Sudeste 9 Este 0 -- -- 96
2019-12-01 08:00:00 7.7 4 Sudeste 28 Oeste 0 -- -- 87
2019-12-01 07:00:00 8.3 10 Oeste 27 Oeste 0 -- -- 94
2019-12-01 06:00:00 5.5 3 Sudeste 16 Sur 0 -- -- 99
2019-12-01 05:00:00 4.8 4 Este 15 Sudeste 0 -- -- 100
2019-12-01 04:00:00 4.5 3 Este 17 Oeste 0 -- -- 99
2019-12-01 03:00:00 4 4 Sudeste 11 Oeste 0 -- -- 99
2019-12-01 02:00:00 3.9 0 Calma 10 Sur 0 -- -- 99
2019-12-01 01:00:00 3.9 3 Sur 8 Sur 0 -- -- 98
2019-12-01 00:00:00 4.3 3 Sur 9 Sur 0 -- -- 98
2019-11-30 23:00:00 4.6 3 Sur 5 Sur 0.2 -- -- 97
2019-11-30 22:00:00 5.4 0 Calma 7 Sudeste 0 -- -- 97
2019-11-30 21:00:00 6.2 3 Sur 6 Sur 0 -- -- 97
2019-11-30 20:00:00 7.3 2 Sur 6 Sudeste 0 -- -- 97
2019-11-30 19:00:00 8.6 0 Calma 9 Sur 0 -- -- 97
2019-11-30 18:00:00 9 4 Noroeste 21 Sudoeste 0.8 -- -- 97
2019-11-30 17:00:00 9.6 0 Calma 9 Sudoeste 0.8 -- -- 96
2019-11-30 16:00:00 10.1 4 Sur 9 Sudoeste 1.6 -- -- 96
2019-11-30 15:00:00 10.4 3 Sur 8 Sur 5.6 -- -- 96
2019-11-30 14:00:00 10.4 2 Sur 9 Sur 9.2 -- -- 94
2019-11-30 13:00:00 10.9 3 Sur 17 Sudeste 3 -- -- 91
2019-11-30 12:00:00 13.4 8 Sudeste 23 Sur 0 -- -- 81
2019-11-30 11:00:00 16.7 5 Oeste 28 Sur 0 -- -- 67
2019-11-30 10:00:00 16.2 11 Sudoeste 36 Sudoeste 0 -- -- 68
2019-11-30 09:00:00 15.5 11 Oeste 30 Noroeste 0 -- -- 69
2019-11-30 08:00:00 15.4 9 Oeste 26 Oeste 0 -- -- 72
2019-11-30 07:00:00 15.5 11 Oeste 28 Sudoeste 0 -- -- 72
2019-11-30 06:00:00 15.7 11 Oeste 29 Oeste 0 -- -- 70
2019-11-30 05:00:00 16.1 12 Oeste 49 Oeste 0 -- -- 68
2019-11-30 04:00:00 15.7 21 Oeste 53 Sudoeste 0 -- -- 68
2019-11-30 03:00:00 13.8 5 Oeste 26 Sur 0 -- -- 75
2019-11-30 02:00:00 12.2 8 Sudoeste 23 Sudoeste 0 -- -- 87
2019-11-30 01:00:00 7.6 4 Nordeste 18 Sur 0 -- -- 99
2019-11-30 00:00:00 6.7 3 Sur 8 Sudeste 0 -- -- 98
2019-11-29 23:00:00 7 2 Sudoeste 10 Sur 0 -- -- 98
2019-11-29 22:00:00 7.2 3 Sudoeste 7 Sudoeste 0 -- -- 97
2019-11-29 21:00:00 7.8 3 Sur 6 Sur 0 -- -- 95
2019-11-29 20:00:00 8.5 3 Sudoeste 8 Sur 0 -- -- 94
2019-11-29 19:00:00 9.2 3 Sur 14 Sur 0 -- -- 92
2019-11-29 18:00:00 10.4 5 Sur 14 Sur 0 -- -- 90
2019-11-29 17:00:00 11.2 5 Sudoeste 10 Sur 0 -- -- 89
2019-11-29 16:00:00 13.2 6 Sudoeste 10 Sudoeste 0 -- -- 80
2019-11-29 15:00:00 15.4 5 Oeste 12 Oeste 0 -- -- 74
2019-11-29 14:00:00 16 5 Oeste 9 Oeste 0 -- -- 73
2019-11-29 13:00:00 15.6 6 Sudoeste -- -- -- -- -- 76
2019-11-29 12:00:00 -- 8 Oeste 10 Oeste 0 -- -- --
2019-11-29 11:00:00 11.9 0 Calma 5 Sudoeste 0 -- -- 100
2019-11-29 10:00:00 10.3 0 Calma 5 Sur 0 -- -- 99
2019-11-29 09:00:00 10.6 0 Calma 7 Sur 0 -- -- 99
2019-11-29 08:00:00 10.7 2 Sudoeste 8 Sur 0 -- -- 99
2019-11-29 07:00:00 10.8 0 Calma 7 Sudoeste 0 -- -- 99
2019-11-29 06:00:00 10.9 0 Calma 5 Sur 0 -- -- 99
2019-11-29 05:00:00 10.9 0 Calma 6 Sur 0 -- -- 99
2019-11-29 04:00:00 10.9 0 Calma 4 Sudoeste 0 -- -- 99
2019-11-29 03:00:00 11.3 2 Oeste 8 Oeste 0.4 -- -- 98
2019-11-29 02:00:00 11.4 0 Calma 9 Noroeste 1 -- -- 98
2019-11-29 01:00:00 11.4 2 Oeste 8 Sudoeste 0.4 -- -- 98
2019-11-29 00:00:00 11.4 0 Calma 7 Sudeste 0.2 -- -- 97
2019-11-28 23:00:00 11.9 3 Sudoeste 14 Sudoeste 0.2 -- -- 96
2019-11-28 22:00:00 11.5 4 Norte 25 Oeste 0 -- -- 98
2019-11-28 21:00:00 9.7 3 Este 10 Sudeste 0 -- -- 98
2019-11-28 20:00:00 9.9 2 Nordeste 6 Este 0.2 -- -- 98
2019-11-28 19:00:00 10 2 Sur 5 Sudoeste 0.6 -- -- 96
2019-11-28 18:00:00 10.5 0 Calma 9 Sur 2.4 -- -- 96
2019-11-28 17:00:00 11 0 Calma 5 Nordeste 2.2 -- -- 95
2019-11-28 16:00:00 11.3 0 Calma 4 Nordeste 0 -- -- 93
2019-11-28 15:00:00 11.5 0 Calma 4 Nordeste 0 -- -- 92
2019-11-28 14:00:00 11.8 2 Norte 7 Norte 0 -- -- 88
2019-11-28 13:00:00 11.7 3 Norte 9 Norte 0 -- -- 87
2019-11-28 12:00:00 11.4 2 Nordeste 7 Nordeste 0 -- -- 89
2019-11-28 11:00:00 10.9 3 Norte 9 Sudeste 0 -- -- 89
2019-11-28 10:00:00 10.3 3 Sudeste 10 Sur 0 -- -- 92
2019-11-28 09:00:00 9.2 0 Calma 7 Sur 0 -- -- 94
2019-11-28 08:00:00 8.7 4 Sudoeste 7 Oeste 0 -- -- 93
2019-11-28 07:00:00 8.8 2 Sur 7 Oeste 0 -- -- 90
2019-11-28 06:00:00 9.9 4 Sur 12 Oeste 0 -- -- 86
2019-11-28 05:00:00 11.8 3 Noroeste 22 Noroeste 0 -- -- 74
2019-11-28 04:00:00 12.8 9 Noroeste 25 Noroeste 0 -- -- 70
2019-11-28 03:00:00 12.7 6 Noroeste 38 Norte 0 -- -- 67
2019-11-28 02:00:00 12.3 7 Norte 26 Noroeste 0 -- -- 72
2019-11-28 01:00:00 12.4 10 Noroeste 26 Noroeste 0 -- -- 70
2019-11-28 00:00:00 11.3 6 Noroeste 24 Norte 0 -- -- 80
2019-11-27 23:00:00 9.9 3 Oeste 19 Sudoeste 0 -- -- 96
2019-11-27 22:00:00 9.1 2 Norte 9 Sur 0 -- -- 98
2019-11-27 21:00:00 9.5 3 Oeste 5 Sudeste 0.2 -- -- 97
2019-11-27 20:00:00 9.8 3 Sudoeste 8 Oeste 0 -- -- 96
2019-11-27 19:00:00 10.2 0 Calma 9 Sur 0 -- -- 95
2019-11-27 18:00:00 10.6 0 Calma 6 Sudeste 0.8 -- -- 94
2019-11-27 17:00:00 11.4 5 Oeste 33 Oeste 3 -- -- 89
2019-11-27 16:00:00 12.8 10 Oeste 31 Norte 0.2 -- -- 79
2019-11-27 15:00:00 14.6 5 Nordeste 29 Nordeste 0 -- -- 60
2019-11-27 14:00:00 14.8 7 Norte 29 Sudoeste 0 -- -- 57
2019-11-27 06:00:00 -- -- -- -- -- -- -- -- --
2019-11-27 05:00:00 13.2 14 Noroeste 37 Oeste 0 -- -- 54
2019-11-27 04:00:00 13.7 14 Noroeste 38 Norte 0 -- -- 51
2019-11-27 03:00:00 14.1 13 Oeste 45 Oeste 0 -- -- 48
2019-11-27 02:00:00 14.3 10 Norte 28 Norte 0 -- -- 57
2019-11-27 01:00:00 15.3 9 Nordeste 30 Norte 0 -- -- 58
2019-11-27 00:00:00 16.1 7 Noroeste 31 Norte 0 -- -- 54
2019-11-26 23:00:00 16.7 9 Norte 43 Nordeste 0 -- -- 56
2019-11-26 22:00:00 17.5 16 Nordeste 45 Norte 0 -- -- 51
2019-11-26 21:00:00 17.3 13 Nordeste 31 Sur 0 -- -- 50
2019-11-26 20:00:00 14.8 5 Este 21 Este 0 -- -- 86
2019-11-26 19:00:00 16.3 3 Nordeste 23 Sur 0 -- -- 78
2019-11-26 18:00:00 17.2 6 Sudoeste 26 Oeste 0 -- -- 69
2019-11-26 17:00:00 18.3 6 Sudoeste 30 Oeste 0 -- -- 64
2019-11-26 16:00:00 18.2 8 Sudoeste 49 Sudoeste 0 -- -- 64
2019-11-26 15:00:00 18.7 18 Oeste 60 Oeste 0 -- -- 60
2019-11-26 14:00:00 18.4 13 Noroeste 40 Sudoeste 0 -- -- 62
2019-11-26 13:00:00 18.7 8 Nordeste 29 Nordeste 0 -- -- 61
2019-11-26 12:00:00 17.6 5 Sudeste 31 Sur 0 -- -- 67
2019-11-26 11:00:00 17.2 6 Sur 27 Oeste 0 -- -- 67
2019-11-26 10:00:00 16.7 13 Oeste 57 Noroeste 0 -- -- 65
2019-11-26 09:00:00 16.4 19 Oeste 44 Oeste 0 -- -- 64
2019-11-26 08:00:00 15.4 9 Oeste 27 Noroeste 0 -- -- 66
2019-11-26 07:00:00 14.9 5 Sur 29 Oeste 0 -- -- 67
2019-11-26 06:00:00 14.9 10 Noroeste 27 Oeste 0 -- -- 64
2019-11-26 05:00:00 14.2 4 Nordeste 28 Oeste 0 -- -- 65
2019-11-26 04:00:00 14.9 17 Noroeste 38 Oeste 0 -- -- 59
2019-11-26 03:00:00 14.8 10 Sudoeste 29 Sur 0 -- -- 59
2019-11-26 02:00:00 14.2 8 Noroeste 34 Oeste 0 -- -- 63
2019-11-26 01:00:00 14 5 Este 38 Oeste 0 -- -- 69
2019-11-26 00:00:00 10.3 7 Norte 25 Noroeste 0 -- -- 95
2019-11-25 23:00:00 7.9 5 Sur 9 Sudoeste 0 -- -- 96
2019-11-25 22:00:00 8.8 3 Sur 8 Sudoeste 0 -- -- 93
2019-11-25 21:00:00 10.4 4 Sudoeste 8 Sur 0 -- -- 90
2019-11-25 20:00:00 12 3 Sur 10 Sudoeste 0 -- -- 87
2019-11-25 19:00:00 12.9 3 Sur 9 Sudoeste 0 -- -- 86
2019-11-25 18:00:00 13.3 5 Sur 13 Sur 0 -- -- 84
2019-11-25 17:00:00 14.1 3 Sur 10 Este 0 -- -- 82
2019-11-25 16:00:00 14.9 0 Calma 13 Sur 0 -- -- 78
2019-11-25 15:00:00 15.7 2 Sur 13 Sur 0 -- -- 76
2019-11-25 14:00:00 16.5 4 Sudeste 14 Oeste 0 -- -- 71
2019-11-25 13:00:00 17.2 3 Noroeste 8 Norte 0 -- -- 67
2019-11-25 12:00:00 17.7 3 Noroeste 19 Nordeste 0 -- -- 64
2019-11-25 11:00:00 14.9 4 Nordeste 11 Norte 0 -- -- 76
2019-11-25 10:00:00 11.1 3 Sudoeste 8 Sudoeste 0 -- -- 93
2019-11-25 09:00:00 10.3 0 Calma 21 Noroeste 0 -- -- 90
2019-11-25 08:00:00 11.1 3 Este 13 Nordeste 0 -- -- 86
2019-11-25 07:00:00 13.3 4 Norte 37 Noroeste 0 -- -- 73
2019-11-25 06:00:00 13.2 11 Noroeste 27 Noroeste 0 -- -- 72
2019-11-25 05:00:00 11.1 3 Este 15 Sur 0 -- -- 83
2019-11-25 04:00:00 12.6 7 Sur 35 Noroeste 0 -- -- 74
2019-11-25 03:00:00 13.6 14 Oeste 37 Oeste 0 -- -- 68
2019-11-25 02:00:00 12.6 6 Oeste 23 Sudoeste 0 -- -- 71
2019-11-25 01:00:00 12.6 6 Noroeste 30 Oeste 0 -- -- 73
2019-11-25 00:00:00 11.9 6 Sur 31 Sur 0 -- -- 76
2019-11-24 23:00:00 10.2 5 Nordeste 19 Norte 0 -- -- 87
2019-11-24 22:00:00 10.5 6 Norte 24 Oeste 1 -- -- 86
2019-11-24 21:00:00 11.8 6 Sudeste 45 Oeste 0 -- -- 71
2019-11-24 20:00:00 11.7 12 Noroeste 49 Oeste 0 -- -- 64
2019-11-24 19:00:00 11.1 5 Nordeste 28 Sudoeste 0 -- -- 66
2019-11-24 18:00:00 11.4 10 Oeste 32 Oeste 0 -- -- 61
2019-11-24 17:00:00 11.3 5 Nordeste 18 Sudoeste 0 -- -- 63
2019-11-24 16:00:00 11.8 4 Este 27 Sudoeste 0 -- -- 67
2019-11-24 15:00:00 12.7 4 Sur 9 Sudeste 0 -- -- 69
2019-11-24 14:00:00 12.5 0 Calma 10 Sudoeste 0 -- -- 76
2019-11-24 13:00:00 11.2 0 Calma 6 Norte 0 -- -- 98
2019-11-24 12:00:00 9.1 0 Calma 6 Noroeste 0 -- -- 100
2019-11-24 11:00:00 8 2 Nordeste 5 Sudeste 0 -- -- 100
2019-11-24 10:00:00 7.5 0 Calma 5 Sudeste 0.2 -- -- 100
2019-11-24 09:00:00 7.1 2 Este 5 Sudeste 0 -- -- 99
2019-11-24 08:00:00 7 0 Calma 6 Sur 1 -- -- 99
2019-11-24 07:00:00 6.9 0 Calma 8 Sur 0.4 -- -- 99
2019-11-24 06:00:00 7.1 2 Sudeste 8 Sudoeste 0.6 -- -- 99
2019-11-24 05:00:00 7.2 0 Calma 6 Sudeste 0.8 -- -- 98
2019-11-24 04:00:00 7.2 2 Sudeste 6 Sudeste 0.6 -- -- 98
2019-11-24 03:00:00 7.2 3 Sudoeste 8 Sur 1.4 -- -- 97
2019-11-24 02:00:00 7.2 3 Sur 10 Sur 0.4 -- -- 96
2019-11-24 01:00:00 7.4 3 Sudeste 12 Sudeste 0.2 -- -- 95
2019-11-24 00:00:00 7.8 3 Sudoeste 21 Este 1.2 -- -- 92
2019-11-23 23:00:00 8.1 5 Este 21 Oeste 0 -- -- 91
2019-11-23 22:00:00 7.7 3 Sudoeste 18 Sudoeste 0 -- -- 95
2019-11-23 21:00:00 7.7 3 Sudoeste 10 Sudoeste 0 -- -- 95
2019-11-23 20:00:00 7.8 4 Sudoeste 9 Sudoeste 0.2 -- -- 94
2019-11-23 19:00:00 8.4 0 Calma 16 Norte 0.4 -- -- 90
2019-11-23 18:00:00 9 5 Nordeste 32 Norte 0.2 -- -- 86
2019-11-23 17:00:00 9.3 5 Norte 25 Norte 0.2 -- -- 86
2019-11-23 16:00:00 9.9 7 Nordeste 28 Norte 0 -- -- 80
2019-11-23 15:00:00 10 6 Nordeste 33 Noroeste 0.2 -- -- 80
2019-11-23 14:00:00 9.2 7 Oeste 22 Este 0.8 -- -- 88
2019-11-23 13:00:00 9.4 5 Nordeste 30 Norte 0.4 -- -- 90
2019-11-23 12:00:00 9.5 11 Nordeste 44 Noroeste 0.2 -- -- 78
2019-11-23 11:00:00 9.3 9 Nordeste 37 Norte 0 -- -- 82
2019-11-23 10:00:00 8 8 Norte 37 Norte 0.6 -- -- 92
2019-11-23 09:00:00 8 11 Nordeste 44 Norte 1.8 -- -- 92
2019-11-23 08:00:00 8.6 10 Nordeste 38 Norte 4.8 -- -- 95
2019-11-23 07:00:00 8.2 3 Sudeste 30 Norte 4.6 -- -- 93
2019-11-23 06:00:00 8.4 13 Oeste 41 Noroeste 2.6 -- -- 86
2019-11-23 05:00:00 9.1 8 Noroeste 24 Oeste 3.4 -- -- 84
2019-11-23 04:00:00 10.1 6 Noroeste 25 Noroeste 1.6 -- -- 82
2019-11-23 03:00:00 10.8 5 Oeste 24 Norte 0.8 -- -- 79
2019-11-23 02:00:00 12.5 4 Noroeste 39 Norte 0 -- -- 61
2019-11-23 01:00:00 12.7 7 Sur 31 Sudoeste 0 -- -- 61
2019-11-23 00:00:00 12.6 6 Sudeste 27 Oeste 0 -- -- 64
2019-11-22 23:00:00 12.9 10 Oeste 42 Oeste 0 -- -- 63
2019-11-22 22:00:00 12.9 10 Oeste 47 Sudoeste 0 -- -- 61
2019-11-22 21:00:00 13.2 24 Oeste 61 Oeste 0 -- -- 59
2019-11-22 20:00:00 12 8 Oeste 35 Oeste 0 -- -- 74
2019-11-22 19:00:00 11 9 Oeste 23 Oeste 3.6 -- -- 87
2019-11-22 18:00:00 13.2 11 Noroeste 41 Sudoeste 0 -- -- 69
2019-11-22 17:00:00 13.2 16 Sudoeste 44 Oeste 0 -- -- 68
2019-11-22 16:00:00 12.9 14 Oeste 57 Sur 0 -- -- 70
2019-11-22 15:00:00 11.6 15 Sudoeste 54 Sudoeste 1.4 -- -- 80
2019-11-22 14:00:00 13.1 23 Sudoeste 68 Sudoeste 0 -- -- 62
2019-11-22 13:00:00 12.7 23 Sudoeste 59 Sur 0 -- -- 63
2019-11-22 12:00:00 12.2 28 Sudoeste 58 Oeste 0 -- -- 63
2019-11-22 11:00:00 11.9 17 Oeste 52 Sudoeste 0 -- -- 63
2019-11-22 10:00:00 11.5 19 Sudoeste 47 Sur 0 -- -- 63
2019-11-22 09:00:00 11.3 12 Sudoeste 44 Sudoeste 0 -- -- 61
2019-11-22 08:00:00 11.1 11 Sudoeste 35 Sudoeste 0 -- -- 59
2019-11-22 07:00:00 11.2 11 Oeste 40 Oeste 0 -- -- 60
2019-11-22 06:00:00 10.8 16 Oeste 54 Sur 0 -- -- 61
2019-11-22 05:00:00 11 12 Oeste 40 Sudoeste 0 -- -- 59
2019-11-22 04:00:00 11.8 20 Oeste 45 Norte 0 -- -- 57
2019-11-22 03:00:00 10.9 5 Oeste 30 Sudoeste 0 -- -- 60
2019-11-22 02:00:00 10.9 11 Sudoeste 30 Oeste 0 -- -- 60
2019-11-22 01:00:00 10.8 11 Oeste 29 Sudoeste 0 -- -- 61
2019-11-22 00:00:00 10.7 10 Oeste 26 Noroeste 0 -- -- 61
2019-11-21 23:00:00 10.9 10 Oeste 30 Oeste 0 -- -- 57
2019-11-21 22:00:00 10.3 14 Oeste 33 Sudoeste 0 -- -- 57
2019-11-21 21:00:00 5.9 3 Oeste 13 Oeste 0 -- -- 85
2019-11-21 20:00:00 5.9 4 Sudoeste 10 Noroeste 0 -- -- 86
2019-11-21 19:00:00 7.1 3 Sur 9 Sur 0 -- -- 79
2019-11-21 18:00:00 9.2 0 Calma 7 Sur 0 -- -- 74
2019-11-21 17:00:00 11.3 4 Sudoeste 9 Oeste 0 -- -- 68
2019-11-21 16:00:00 13 4 Oeste 10 Oeste 0 -- -- 60
2019-11-21 15:00:00 14.2 2 Nordeste 19 Sudoeste 0 -- -- 54
2019-11-21 14:00:00 14.1 5 Sudoeste 22 Sudoeste 0 -- -- 57
2019-11-21 13:00:00 12.1 9 Oeste 21 Oeste 0 -- -- 62
2019-11-21 12:00:00 12.4 6 Oeste 18 Sudoeste 0 -- -- 58
2019-11-21 11:00:00 12.2 10 Oeste 31 Oeste 0 -- -- 59
2019-11-21 10:00:00 10 3 Sur 18 Sudoeste 0 -- -- 68
2019-11-21 09:00:00 9.5 9 Oeste 26 Oeste 0 -- -- 68
2019-11-21 08:00:00 -- -- -- -- -- -- -- -- --
2019-11-21 07:00:00 -- -- -- -- -- -- -- -- --
2019-11-21 06:00:00 -- -- -- -- -- -- -- -- --
2019-11-21 05:00:00 -- -- -- -- -- -- -- -- --
2019-11-21 04:00:00 -- -- -- -- -- -- -- -- --
2019-11-21 03:00:00 -- -- -- -- -- -- -- -- --
2019-11-21 02:00:00 -- -- -- -- -- -- -- -- --
2019-11-21 01:00:00 -- -- -- -- -- -- -- -- --
2019-11-21 00:00:00 -- -- -- -- -- -- -- -- --
2019-11-20 23:00:00 -- -- -- -- -- -- -- -- --
2019-11-20 22:00:00 -- -- -- -- -- -- -- -- --
2019-11-20 21:00:00 -- -- -- -- -- -- -- -- --
2019-11-20 20:00:00 -- -- -- -- -- -- -- -- --
2019-11-20 19:00:00 9.7 5 Sudoeste 19 Sudoeste 0 -- -- 68
2019-11-20 18:00:00 9.7 4 Sudeste 23 Sur 0 -- -- 66
2019-11-20 17:00:00 10.6 6 Sur 25 Oeste 0 -- -- 62
2019-11-20 16:00:00 11.7 10 Sudoeste 33 Oeste 0 -- -- 58
2019-11-20 15:00:00 12.1 10 Oeste 41 Sudoeste 0 -- -- 59
2019-11-20 14:00:00 13.3 10 Sudoeste 51 Noroeste 0 -- -- 51
2019-11-20 13:00:00 13.3 13 Sudoeste 50 Oeste 0 -- -- 51
2019-11-20 12:00:00 12.4 9 Sur 32 Sur 0 -- -- 55
2019-11-20 11:00:00 11.5 7 Sudeste 54 Norte 0 -- -- 57
2019-11-20 10:00:00 9.5 6 Este 30 Sudoeste 0 -- -- 67
2019-11-20 09:00:00 9.2 7 Sudeste 37 Oeste 0 -- -- 65
2019-11-20 08:00:00 9.7 12 Oeste 43 Oeste 0 -- -- 61
2019-11-20 07:00:00 8.4 8 Oeste 23 Oeste 0 -- -- 68
2019-11-20 06:00:00 9.1 9 Sudoeste 40 Oeste 0 -- -- 67
2019-11-20 05:00:00 9.6 18 Oeste 39 Oeste 0 -- -- 63
2019-11-20 04:00:00 7.4 9 Norte 31 Oeste 0 -- -- 77
2019-11-20 03:00:00 5.8 5 Sudeste 25 Oeste 0 -- -- 88
2019-11-20 02:00:00 3.9 4 Sudoeste 12 Sudoeste 0 -- -- 98
2019-11-20 01:00:00 3.5 5 Sudeste 9 Nordeste 0 -- -- 98
2019-11-20 00:00:00 3.4 3 Sudeste 23 Este 0 -- -- 98
2019-11-19 23:00:00 3.3 4 Sur 11 Sur 0 -- -- 98
2019-11-19 22:00:00 3.5 0 Calma 8 Sudoeste 0 -- -- 97
2019-11-19 21:00:00 3.8 3 Sur 8 Sur 0 -- -- 96
2019-11-19 20:00:00 4.4 3 Sudoeste 6 Sudoeste 0 -- -- 95
2019-11-19 19:00:00 5.3 2 Sur 6 Sudoeste 0 -- -- 94
2019-11-19 18:00:00 6.7 4 Sudoeste 8 Sur 0 -- -- 91
2019-11-19 17:00:00 8.2 2 Sudoeste 9 Sur 0 -- -- 88
2019-11-19 16:00:00 10.2 5 Sudoeste 11 Noroeste 0 -- -- 80
2019-11-19 15:00:00 13 4 Noroeste 14 Norte 0 -- -- 68
2019-11-19 14:00:00 12.7 6 Norte 12 Noroeste 0 -- -- 69
2019-11-19 13:00:00 11.4 4 Norte 8 Noroeste 0 -- -- 81
2019-11-19 12:00:00 9.4 3 Norte 7 Noroeste 0 -- -- 97
2019-11-19 11:00:00 6.4 0 Calma 5 Oeste 0 -- -- 100
2019-11-19 10:00:00 3.1 0 Calma 5 Sur 0 -- -- 100
2019-11-19 09:00:00 2.3 0 Calma 5 Sur 0 -- -- 100
2019-11-19 08:00:00 2.8 0 Calma 5 Sudoeste 0 -- -- 100
2019-11-19 07:00:00 3.8 2 Sudoeste 8 Sur 0 -- -- 100
2019-11-19 06:00:00 4.5 0 Calma 5 Sur 0 -- -- 100
2019-11-19 05:00:00 4.9 0 Calma 4 Sudeste 0 -- -- 100
2019-11-19 04:00:00 5.4 0 Calma 5 Sudeste 0 -- -- 100
2019-11-19 03:00:00 5.4 0 Calma 0 Calma 0.2 -- -- 100
2019-11-19 02:00:00 5.8 0 Calma 3 Sudeste 0 -- -- 100
2019-11-19 01:00:00 5.7 0 Calma 4 Sur 0.4 -- -- 100
2019-11-19 00:00:00 5.6 0 Calma -- -- 0 -- -- 99
2019-11-18 23:00:00 5.6 0 Calma 5 Sur 0 -- -- 99
2019-11-18 22:00:00 6.2 0 Calma 4 Sudoeste 0 -- -- 99
2019-11-18 21:00:00 6.3 3 Sudoeste 6 Sur 1 -- -- 99
2019-11-18 20:00:00 6.2 0 Calma 6 Sudoeste 0 -- -- 98
2019-11-18 19:00:00 6.7 0 Calma 6 Sudoeste 0 -- -- 97
2019-11-18 18:00:00 7 3 Sudoeste 9 Sur 0 -- -- 96
2019-11-18 17:00:00 7.7 0 Calma 6 Oeste 0 -- -- 96
2019-11-18 16:00:00 8.2 4 Sudoeste 6 Oeste 0 -- -- 95
2019-11-18 15:00:00 8.5 3 Sudoeste 10 Oeste 0 -- -- 95
2019-11-18 14:00:00 7.5 3 Sudoeste 9 Sudoeste 0 -- -- 99
2019-11-18 13:00:00 6.7 4 Sudoeste 23 Noroeste 0.8 -- -- 100
2019-11-18 12:00:00 6.8 4 Sudoeste 8 Sudoeste 1 -- -- 100
2019-11-18 11:00:00 6.4 4 Oeste 11 Nordeste 1.2 -- -- 100
2019-11-18 10:00:00 6.3 0 Calma 4 Norte 1 -- -- 100
2019-11-18 09:00:00 6 0 Calma 5 Sudeste 0 -- -- 100
2019-11-18 08:00:00 6 0 Calma 4 Sur 0.2 -- -- 100
2019-11-18 07:00:00 6.2 2 Sudoeste 6 Sudoeste 0 -- -- 100
2019-11-18 06:00:00 6.3 3 Sudoeste 6 Sudeste 0 -- -- 100
2019-11-18 05:00:00 6.2 0 Calma 7 Sudoeste 0.4 -- -- 100
2019-11-18 04:00:00 6.3 4 Oeste 22 Nordeste 1.4 -- -- 100
2019-11-18 03:00:00 6.4 3 Sudeste 7 Este 0.6 -- -- 100
2019-11-18 02:00:00 6.4 3 Sudoeste 16 Nordeste 1.6 -- -- 100
2019-11-18 01:00:00 6.4 4 Sudoeste 11 Oeste 2.8 -- -- 99
2019-11-18 00:00:00 6.4 0 Calma 7 Nordeste 3.8 -- -- 99
2019-11-17 23:00:00 6.4 2 Este 7 Nordeste 2 -- -- 99
2019-11-17 22:00:00 6.4 0 Calma 16 Noroeste 1.4 -- -- 98
2019-11-17 21:00:00 6.2 2 Norte 11 Este 0.2 -- -- 99
2019-11-17 20:00:00 5.8 0 Calma 6 Sur 0 -- -- 98
2019-11-17 19:00:00 6.3 4 Sur 8 Sur 0 -- -- 96
2019-11-17 18:00:00 7.6 6 Sur 13 Sur 0 -- -- 95
2019-11-17 17:00:00 8.8 3 Sudoeste 7 Sur 0 -- -- 96
2019-11-17 16:00:00 9.2 5 Sudoeste 13 Sur 0.4 -- -- 96
2019-11-17 15:00:00 9.5 2 Nordeste 14 Este 1.4 -- -- 94
2019-11-17 14:00:00 10.9 3 Oeste 21 Noroeste 0 -- -- 85
2019-11-17 13:00:00 8.5 2 Sur 8 Sur 0.2 -- -- 100
2019-11-17 12:00:00 8 3 Nordeste 10 Nordeste 0.2 -- -- 99
2019-11-17 11:00:00 7.3 3 Este 12 Sudeste 0.4 -- -- 100
2019-11-17 10:00:00 6.1 0 Calma 18 Sudoeste 1 -- -- 100
2019-11-17 09:00:00 5.7 0 Calma 7 Oeste 0.2 -- -- 100
2019-11-17 08:00:00 5.4 0 Calma 5 Sudoeste 0 -- -- 100
2019-11-17 07:00:00 5.5 2 Sudoeste 7 Sur 0.4 -- -- 100
2019-11-17 06:00:00 5.5 0 Calma 0 Calma 0.6 -- -- 100
2019-11-17 05:00:00 5.5 0 Calma -- -- 0.2 -- -- 100
2019-11-17 04:00:00 5.4 0 Calma -- -- 0.2 -- -- 100
2019-11-17 03:00:00 5.3 0 Calma -- -- 0 -- -- 100
2019-11-17 02:00:00 5.1 0 Calma 4 Oeste 0 -- -- 100
2019-11-17 01:00:00 5 2 Sudeste 5 Sudeste 0 -- -- 100
2019-11-17 00:00:00 4.8 2 Este 6 Sudeste 0 -- -- 100
2019-11-16 23:00:00 4.7 0 Calma 5 Sur 0 -- -- 100
2019-11-16 22:00:00 5.2 2 Sudeste 6 Sudeste 0.2 -- -- 99
2019-11-16 21:00:00 5.6 2 Sur 10 Sur 0.2 -- -- 99
2019-11-16 20:00:00 6 2 Sur 8 Sur 0 -- -- 99
2019-11-16 19:00:00 6.2 2 Sudeste 12 Sur 0.4 -- -- 99
2019-11-16 18:00:00 6.6 3 Sur 9 Sudoeste 0.2 -- -- 98
2019-11-16 17:00:00 7 3 Oeste 7 Noroeste 0.6 -- -- 99
2019-11-16 16:00:00 7.1 0 Calma 8 Sudoeste 0.4 -- -- 99
2019-11-16 15:00:00 6.7 0 Calma 15 Sudoeste 1 -- -- 100
2019-11-16 14:00:00 6 0 Calma 10 Sudoeste 1.2 -- -- 100
2019-11-16 13:00:00 5 0 Calma 14 Noroeste 2.2 -- -- 100
2019-11-16 12:00:00 4.5 3 Oeste 12 Oeste 2.6 -- -- 100
2019-11-16 11:00:00 4.6 4 Noroeste 15 Noroeste 3.4 -- -- 100
2019-11-16 10:00:00 3.6 2 Este 8 Sudeste 0.6 -- -- 100
2019-11-16 09:00:00 2.7 2 Sudeste 6 Noroeste 0 -- -- 100
2019-11-16 08:00:00 2 0 Calma 6 Sudeste 0.2 -- -- 100
2019-11-16 07:00:00 1.5 0 Calma 8 Sur 0 -- -- 100
2019-11-16 06:00:00 1 0 Calma 6 Sudoeste 0.2 -- -- 100
2019-11-16 05:00:00 0.1 0 Calma -- -- 0 -- -- 100
2019-11-16 04:00:00 0.4 0 Calma -- -- 0 -- -- 99
2019-11-16 03:00:00 1.4 0 Calma -- -- 0.2 -- -- 99
2019-11-16 02:00:00 2 0 Calma -- -- 0 -- -- 99
2019-11-16 01:00:00 2.7 0 Calma -- -- 0 -- -- 99
2019-11-16 00:00:00 3.5 0 Calma -- -- 0 -- -- 99
2019-11-15 23:00:00 3.9 0 Calma 0 Calma 0 -- -- 99
2019-11-15 22:00:00 4.1 0 Calma -- -- 0 -- -- 99
2019-11-15 21:00:00 4.5 0 Calma 6 Sudoeste 0.2 -- -- 99
2019-11-15 20:00:00 4.8 0 Calma 6 Sur 0.2 -- -- 99
2019-11-15 19:00:00 4.8 0 Calma 7 Noroeste 0.2 -- -- 98
2019-11-15 18:00:00 5 0 Calma 5 Sur 0 -- -- 98
2019-11-15 17:00:00 5.4 0 Calma 8 Sur 0 -- -- 97
2019-11-15 16:00:00 5.1 5 Sudoeste 10 Sudoeste 1.4 -- -- 96
2019-11-15 15:00:00 5.5 4 Noroeste 19 Noroeste 3 -- -- 96
2019-11-15 14:00:00 6.3 4 Nordeste 21 Norte 2.8 -- -- 96
2019-11-15 13:00:00 6.9 3 Noroeste 14 Norte 0.6 -- -- 98
2019-11-15 12:00:00 6.4 3 Sudoeste 13 Noroeste 2 -- -- 98
2019-11-15 11:00:00 5.6 5 Noroeste 16 Norte 3.2 -- -- 97
2019-11-15 10:00:00 5.5 6 Norte 22 Oeste 2 -- -- 95
2019-11-15 09:00:00 5.3 4 Noroeste 30 Oeste 1 -- -- 94
2019-11-15 08:00:00 4.9 7 Oeste 19 Oeste 1.4 -- -- 96
2019-11-15 07:00:00 4.8 4 Norte 20 Noroeste 1.4 -- -- 94
2019-11-15 06:00:00 4.9 6 Noroeste 26 Noroeste 1 -- -- 92
2019-11-15 05:00:00 4.4 3 Noroeste 17 Noroeste 1.4 -- -- 97
2019-11-15 04:00:00 4.1 4 Oeste 26 Nordeste 0.8 -- -- 98
2019-11-15 03:00:00 2.9 5 Noroeste 20 Oeste 0.2 -- -- 99
2019-11-15 02:00:00 2 2 Sur 6 Sudeste 0 -- -- 97
2019-11-15 01:00:00 2.2 0 Calma 5 Sur 0 -- -- 96
2019-11-15 00:00:00 3 0 Calma 8 Sudeste 0 -- -- 94
2019-11-14 23:00:00 4.3 0 Calma 6 Noroeste 0 -- -- 93
2019-11-14 22:00:00 5.1 3 Norte 15 Norte 0 -- -- 93
2019-11-14 21:00:00 5.9 2 Noroeste 9 Noroeste 0.2 -- -- 93
2019-11-14 20:00:00 6 3 Noroeste 6 Noroeste 0 -- -- 94
2019-11-14 19:00:00 6.4 2 Sur 6 Sudeste 0 -- -- 92
2019-11-14 18:00:00 7 0 Calma 8 Oeste 0 -- -- 85
2019-11-14 17:00:00 8.3 3 Sudoeste 9 Norte 0 -- -- 78
2019-11-14 16:00:00 10.9 4 Noroeste 23 Norte 0 -- -- 58
2019-11-14 15:00:00 12.3 5 Oeste 12 Noroeste 0 -- -- 56
2019-11-14 14:00:00 10.8 4 Oeste 12 Norte 0 -- -- 56
2019-11-14 13:00:00 10 4 Noroeste 19 Noroeste 0 -- -- 66
2019-11-14 12:00:00 9.2 6 Noroeste 29 Oeste 0 -- -- 66
2019-11-14 11:00:00 7.8 8 Oeste 22 Sur 0 -- -- 84
2019-11-14 10:00:00 4.2 0 Calma 6 Sudeste 0 -- -- 99
2019-11-14 09:00:00 3.2 3 Sur 7 Este 0 -- -- 99
2019-11-14 08:00:00 3.5 0 Calma 8 Sudeste 0 -- -- 98
2019-11-14 07:00:00 4 0 Calma 12 Sudoeste 0 -- -- 97
2019-11-14 06:00:00 4.6 2 Oeste 6 Oeste 1.2 -- -- 98
2019-11-14 05:00:00 4.9 0 Calma 23 Norte 1.6 -- -- 97
2019-11-14 04:00:00 5.8 3 Noroeste 16 Noroeste 2.4 -- -- 98
2019-11-14 03:00:00 6.7 3 Noroeste 19 Nordeste 2.8 -- -- 99
2019-11-14 02:00:00 7.6 4 Norte 18 Norte 1.6 -- -- 100
2019-11-14 01:00:00 7.3 3 Sur 14 Norte 0 -- -- 99
2019-11-14 00:00:00 6.7 2 Nordeste 9 Oeste 0.2 -- -- 99
2019-11-13 23:00:00 6.8 0 Calma 10 Sur 0 -- -- 98
2019-11-13 22:00:00 7.7 2 Sur 9 Sur 0 -- -- 98
2019-11-13 21:00:00 7.9 4 Sur 8 Sur 0 -- -- 98
2019-11-13 20:00:00 7.8 0 Calma 8 Sur 0 -- -- 97
2019-11-13 19:00:00 7.9 3 Sur 8 Sur 0 -- -- 96
2019-11-13 18:00:00 8.8 5 Sur 8 Sudoeste 0 -- -- 95
2019-11-13 17:00:00 9.7 0 Calma 7 Sudoeste 0 -- -- 93
2019-11-13 16:00:00 10.6 5 Oeste 10 Noroeste 0 -- -- 90
2019-11-13 15:00:00 10.5 7 Noroeste 13 Oeste 0 -- -- 88
2019-11-13 14:00:00 11.1 4 Sudoeste 8 Sudoeste 0 -- -- 91
2019-11-13 13:00:00 10.5 3 Sur 13 Este 3.2 -- -- 93
2019-11-13 12:00:00 10.2 5 Sudoeste 11 Oeste 2.6 -- -- 100
2019-11-13 11:00:00 9.6 0 Calma 6 Sudoeste 0.6 -- -- 100
2019-11-13 10:00:00 9.2 0 Calma 7 Noroeste 0 -- -- 100
2019-11-13 09:00:00 9 0 Calma 6 Oeste 0.4 -- -- 100
2019-11-13 08:00:00 8.9 3 Norte 15 Sudeste 0.6 -- -- 100
2019-11-13 07:00:00 8.9 5 Sudeste 26 Sudoeste 2.8 -- -- 100
2019-11-13 06:00:00 8.4 0 Calma 5 Noroeste 1.4 -- -- 100
2019-11-13 05:00:00 8.3 0 Calma 6 Sur 3 -- -- 99
2019-11-13 04:00:00 8.3 0 Calma 5 Norte 3.2 -- -- 99
2019-11-13 03:00:00 8.2 0 Calma 6 Sur 0 -- -- 99
2019-11-13 02:00:00 8 0 Calma 5 Sur 0 -- -- 98
2019-11-13 01:00:00 8.1 0 Calma 5 Sur 0 -- -- 98
2019-11-13 00:00:00 8.3 0 Calma 5 Este 0.2 -- -- 96
2019-11-12 23:00:00 8.9 3 Este 27 Oeste 0.8 -- -- 94
2019-11-12 22:00:00 9.4 8 Oeste 28 Sudoeste 0.6 -- -- 89
2019-11-12 21:00:00 9.3 12 Oeste 31 Sudoeste 1.6 -- -- 89
2019-11-12 20:00:00 8.8 5 Oeste 12 Sudoeste 2.2 -- -- 96
2019-11-12 19:00:00 9.3 0 Calma 5 Noroeste 0.2 -- -- 94
2019-11-12 18:00:00 10.2 0 Calma 4 Sur 0 -- -- 91
2019-11-12 17:00:00 11.3 0 Calma 7 Oeste 0 -- -- 88
2019-11-12 16:00:00 12 3 Oeste 7 Oeste 0 -- -- 83
2019-11-12 15:00:00 12.4 0 Calma 6 Norte 0 -- -- 83
2019-11-12 14:00:00 11.8 2 Nordeste 11 Nordeste 0 -- -- 82
2019-11-12 13:00:00 11.1 0 Calma 4 Sur 0 -- -- 96
2019-11-12 12:00:00 10.1 0 Calma 10 Norte 0 -- -- 100
2019-11-12 11:00:00 8.9 2 Nordeste 5 Nordeste 0 -- -- 100
2019-11-12 10:00:00 8 0 Calma 4 Nordeste 0 -- -- 100
2019-11-12 09:00:00 7.2 0 Calma 5 Sudeste 0 -- -- 100
2019-11-12 08:00:00 7 0 Calma 11 Sudeste 0.6 -- -- 100
2019-11-12 07:00:00 7 2 Sur 8 Este 0.2 -- -- 100
2019-11-12 06:00:00 7 0 Calma 10 Oeste 0.6 -- -- 100
2019-11-12 05:00:00 7 2 Sur 6 Sudeste 0.4 -- -- 100
2019-11-12 04:00:00 6.9 0 Calma 7 Este 0.6 -- -- 100
2019-11-12 03:00:00 6.8 0 Calma 3 Sudeste 0.4 -- -- 100
2019-11-12 02:00:00 6.8 0 Calma 4 Sur 0.2 -- -- 100
2019-11-12 01:00:00 6.8 2 Sur 5 Sur 0.2 -- -- 100
2019-11-12 00:00:00 6.7 3 Sur 10 Sudoeste 0.2 -- -- 99
2019-11-11 23:00:00 7 5 Sudoeste 9 Sudoeste 0.4 -- -- 99
2019-11-11 22:00:00 7 0 Calma 7 Sur 0.2 -- -- 99
2019-11-11 21:00:00 7.4 3 Sur 9 Oeste 3.8 -- -- 99
2019-11-11 20:00:00 7.3 2 Sudeste 9 Sudeste 0.6 -- -- 98
2019-11-11 19:00:00 7.4 2 Sudoeste 10 Sur 0.4 -- -- 97
2019-11-11 18:00:00 7.7 3 Sur 11 Sur 1.2 -- -- 94
2019-11-11 17:00:00 8.7 7 Nordeste 22 Nordeste 0 -- -- 88
2019-11-11 16:00:00 8.6 5 Nordeste 19 Este 0.2 -- -- 95
2019-11-11 15:00:00 8.6 5 Nordeste 24 Norte 0.6 -- -- 99
2019-11-11 14:00:00 8.8 6 Nordeste 26 Norte 0.2 -- -- 100
2019-11-11 13:00:00 9.7 4 Nordeste 31 Este 2.2 -- -- 100
2019-11-11 12:00:00 9.1 3 Este 8 Norte 1.2 -- -- 100
2019-11-11 11:00:00 7.9 4 Sudoeste 8 Sudoeste 1.8 -- -- 100
2019-11-11 10:00:00 7.3 2 Sur 7 Sur 0.4 -- -- 100
2019-11-11 09:00:00 6.7 3 Oeste 10 Sur 0 -- -- 100
2019-11-11 08:00:00 6.3 0 Calma 5 Sur 0 -- -- 100
2019-11-11 07:00:00 6.2 0 Calma 4 Sur 0 -- -- 100
2019-11-11 06:00:00 6.1 0 Calma 5 Sur 0 -- -- 100
2019-11-11 05:00:00 5.9 0 Calma 4 Oeste 0 -- -- 100
2019-11-11 04:00:00 6 0 Calma 4 Sudeste 0.2 -- -- 100
2019-11-11 03:00:00 5.8 0 Calma 4 Sudoeste 1 -- -- 100
2019-11-11 02:00:00 5.6 0 Calma 5 Sudoeste 0.4 -- -- 100
2019-11-11 01:00:00 5.3 0 Calma 4 Sur 0.4 -- -- 100
2019-11-11 00:00:00 5.2 0 Calma 6 Sudeste 0.6 -- -- 100
2019-11-10 23:00:00 5.1 2 Sudeste 6 Sudeste 0 -- -- 99
2019-11-10 22:00:00 5.5 2 Sur 8 Sudeste 1.6 -- -- 99
2019-11-10 21:00:00 5.7 0 Calma 6 Sur 0.4 -- -- 99
2019-11-10 20:00:00 5.7 3 Sudeste 6 Sudeste 0.2 -- -- 99
2019-11-10 19:00:00 5.9 3 Sur 8 Noroeste 1.4 -- -- 98
2019-11-10 18:00:00 6 0 Calma 8 Sudoeste 1.2 -- -- 98
2019-11-10 17:00:00 6 2 Sur 10 Sur 0.6 -- -- 98
2019-11-10 16:00:00 6 0 Calma 14 Sur 2.4 -- -- 97
2019-11-10 15:00:00 6.1 5 Sur 18 Este 2.8 -- -- 96
2019-11-10 14:00:00 6.9 5 Norte 25 Oeste 0.8 -- -- 98
2019-11-10 13:00:00 7.1 0 Calma 5 Este 0 -- -- 98
2019-11-10 12:00:00 5.3 0 Calma 11 Sudoeste 3.2 -- -- 99
2019-11-10 11:00:00 5.2 5 Oeste 15 Oeste 3.4 -- -- 98
2019-11-10 10:00:00 5.5 3 Sudeste 14 Sudoeste 1.6 -- -- 99
2019-11-10 09:00:00 5.6 3 Oeste 13 Este 5 -- -- 99
2019-11-10 08:00:00 5.9 3 Este 10 Nordeste 1.2 -- -- 99
2019-11-10 07:00:00 5.7 6 Noroeste 16 Norte 1.4 -- -- 99
2019-11-10 06:00:00 5.5 4 Norte 21 Norte 0.8 -- -- 99
2019-11-10 05:00:00 5.3 4 Sudoeste 9 Sur 3 -- -- 98
2019-11-10 04:00:00 5.6 5 Sur 14 Oeste 4 -- -- 98
2019-11-10 03:00:00 5.9 2 Norte 10 Noroeste 0.6 -- -- 98
2019-11-10 02:00:00 6.3 3 Oeste 21 Este 2 -- -- 98
2019-11-10 01:00:00 6.6 3 Este 14 Sudoeste 1.4 -- -- 98
2019-11-10 00:00:00 6.7 5 Sudoeste 12 Sudoeste 1.6 -- -- 97
2019-11-09 23:00:00 7 4 Oeste 18 Oeste 2.6 -- -- 97
2019-11-09 22:00:00 7.2 0 Calma 14 Sudoeste 1.6 -- -- 96
2019-11-09 21:00:00 7.7 4 Nordeste 15 Nordeste 4.6 -- -- 95
2019-11-09 20:00:00 8.3 4 Norte 30 Norte 2.4 -- -- 95
2019-11-09 19:00:00 9.4 3 Sur 21 Noroeste 0.2 -- -- 93
2019-11-09 18:00:00 10.4 7 Noroeste 31 Noroeste 0 -- -- 88
2019-11-09 17:00:00 9.6 5 Sur 12 Sudoeste 0.8 -- -- 96
2019-11-09 16:00:00 10 2 Oeste 26 Oeste 0.6 -- -- 91
2019-11-09 15:00:00 10.4 9 Noroeste 32 Oeste 0.2 -- -- 82
2019-11-09 14:00:00 10 6 Noroeste 20 Norte 0.4 -- -- 85
2019-11-09 13:00:00 9.5 5 Norte 25 Oeste 0.2 -- -- 87
2019-11-09 12:00:00 8.7 7 Oeste 32 Oeste 0.8 -- -- 85
2019-11-09 11:00:00 9 5 Norte 20 Noroeste 0 -- -- 98
2019-11-09 10:00:00 8.6 0 Calma 4 Noroeste 0 -- -- 100
2019-11-09 09:00:00 7.7 0 Calma 5 Sur 0.2 -- -- 100
2019-11-09 08:00:00 7.5 2 Sudeste 7 Sudeste 0 -- -- 100
2019-11-09 07:00:00 7.4 0 Calma 5 Sur 1 -- -- 100
2019-11-09 06:00:00 7.4 0 Calma 6 Sudeste 0.8 -- -- 99
2019-11-09 05:00:00 7.3 0 Calma 5 Sudeste 1.2 -- -- 99
2019-11-09 04:00:00 7.2 0 Calma 6 Oeste 1.8 -- -- 99
2019-11-09 03:00:00 7 0 Calma 5 Sur 2.2 -- -- 99
2019-11-09 02:00:00 6.9 2 Sudeste 8 Sudeste 0.2 -- -- 99
2019-11-09 01:00:00 7 4 Sur 11 Sur 0.2 -- -- 98
2019-11-09 00:00:00 7.1 2 Sudeste 9 Sudoeste 1 -- -- 98
2019-11-08 23:00:00 7.2 0 Calma 11 Oeste 1.8 -- -- 97
2019-11-08 22:00:00 7.3 4 Norte 18 Noroeste 0.4 -- -- 97
2019-11-08 21:00:00 7.2 3 Noroeste 14 Oeste 2.2 -- -- 97
2019-11-08 20:00:00 7.2 5 Nordeste 19 Norte 0.8 -- -- 96
2019-11-08 19:00:00 7.3 4 Nordeste 24 Norte 1.6 -- -- 97
2019-11-08 18:00:00 7.6 5 Nordeste 28 Norte 2 -- -- 96
2019-11-08 17:00:00 7.3 7 Noroeste 23 Noroeste 7 -- -- 96
2019-11-08 16:00:00 7.5 6 Norte 32 Noroeste 2.2 -- -- 96
2019-11-08 15:00:00 8 9 Nordeste 28 Noroeste 0.4 -- -- 95
2019-11-08 14:00:00 7.6 8 Nordeste 24 Norte 1 -- -- 96
2019-11-08 13:00:00 7 8 Nordeste 26 Oeste 2 -- -- 93
2019-11-08 12:00:00 6.9 6 Norte 29 Noroeste 2.6 -- -- 92
2019-11-08 11:00:00 6.9 4 Noroeste 20 Oeste 1.6 -- -- 89
2019-11-08 10:00:00 7.4 8 Noroeste 37 Noroeste 0.6 -- -- 84
2019-11-08 09:00:00 7.2 8 Noroeste 33 Noroeste 0.6 -- -- 81
2019-11-08 08:00:00 6.8 10 Oeste 33 Oeste 0.4 -- -- 83
2019-11-08 07:00:00 6.6 16 Oeste 38 Sudoeste 0.2 -- -- 82
2019-11-08 06:00:00 5.7 8 Oeste 20 Oeste 0.8 -- -- 88
2019-11-08 05:00:00 5.5 10 Oeste 21 Sudoeste 2.4 -- -- 89
2019-11-08 04:00:00 6.3 6 Noroeste 32 Oeste 0.2 -- -- 80
2019-11-08 03:00:00 6.4 14 Noroeste 31 Oeste 0.4 -- -- 77
2019-11-08 02:00:00 7.1 9 Noroeste 32 Oeste 0.2 -- -- 73
2019-11-08 01:00:00 7.2 12 Noroeste 28 Noroeste 0.2 -- -- 68
2019-11-08 00:00:00 4.1 8 Noroeste 22 Oeste 0 -- -- 100